This is the latest recevied weather packets stored in our database for station/object W6SNO-1. If no packets are shown the sender has not sent any weather packets the latest 1 day(s).
| Time | Temp. | Humidity | Pressure | Rain* | Wind** | Luminosity | Snow |
|---|---|---|---|---|---|---|---|
| 1836274725 | 20° C | 75% | 1014.6 hPa | 0 mm | 0 m/s | 0 W/m² | - |
| 1836274578 | 19.44° C | 75% | 1014.5 hPa | 0 mm | 0 m/s | 0 W/m² | - |
| 1836274423 | 20° C | 74% | 1014.4 hPa | 0 mm | 0 m/s | 0 W/m² | - |
| 1836274277 | 19.44° C | 75% | 1014.5 hPa | 0 mm | 0 m/s | 0 W/m² | - |
| 1836274122 | 20° C | 73% | 1014.3 hPa | 0 mm | 0 m/s | 0 W/m² | - |
| 1778044322 | 15° C | 79% | 1017.8 hPa | 0 mm | 0 m/s | 0 W/m² | - |
| 1778044021 | 14.44° C | 80% | 1018 hPa | 0 mm | 0 m/s | 0 W/m² | - |
| 1778043718 | 14.44° C | 80% | 1017.9 hPa | 0 mm | 0 m/s | 0 W/m² | - |
| 1778043414 | 15° C | 84% | 1017.8 hPa | 0 mm | 0 m/s | 0 W/m² | - |
| 1778043111 | 14.44° C | 80% | 1017.7 hPa | 0 mm | 0 m/s | 0 W/m² | - |
| 1778042809 | 14.44° C | 80% | 1017.7 hPa | 0 mm | 0 m/s | 0 W/m² | - |
| 1778042505 | 15° C | 80% | 1017.5 hPa | 0 mm | 0 m/s | 0 W/m² | - |
| 1778042203 | 14.44° C | 79% | 1017.6 hPa | 0 mm | 0 m/s | 0 W/m² | - |
| 1778041900 | 14.44° C | 78% | 1017.5 hPa | 0 mm | 0 m/s | 0 W/m² | - |
| 1778041599 | 14.44° C | 78% | 1017.5 hPa | 0 mm | 0 m/s | 0 W/m² | - |
| 1778041297 | 15° C | 77% | 1017.5 hPa | 0 mm | 0 m/s | 0 W/m² | - |
| 1778040995 | 14.44° C | 77% | 1017.4 hPa | 0 mm | 0 m/s | 0 W/m² | - |
| 1778040691 | 14.44° C | 78% | 1017.3 hPa | 0 mm | 0 m/s | 0 W/m² | - |
| 1778040389 | 14.44° C | 77% | 1017.2 hPa | 0 mm | 0 m/s | 0 W/m² | - |
| 1778040086 | 14.44° C | 77% | 1017.1 hPa | 0 mm | 0 m/s | 0 W/m² | - |
| 1778039783 | 14.44° C | 77% | 1017.2 hPa | 0 mm | 0 m/s | 0 W/m² | - |
| 1778039479 | 14.44° C | 77% | 1017.2 hPa | 0 mm | 0 m/s | 0 W/m² | - |
| 1778039177 | 14.44° C | 76% | 1016.9 hPa | 0 mm | 0 m/s | 0 W/m² | - |
| 1778038874 | 14.44° C | 77% | 1016.9 hPa | 0 mm | 0 m/s | 0 W/m² | - |
| 1778038571 | 14.44° C | 76% | 1016.9 hPa | 0 mm | 0 m/s | 0 W/m² | - |
* Rain latest hour (hover to see other rain measurements)
** Current wind speed in m/s (hover to see current wind gust speed)